Lackland, Texas
Current Conditions -  °F | °C
As of 2:58 AM on Sunday 23 Nov 2014 (Local Time) from KSKF Reporting Station
Clear Clear  
Wind Chill: 55°   Ceiling: Unl
Heat Index: 55°   Visibility: 10mi
Dew Point: 53°   Wind: 6mph
Humidity: 92%   Direction: 260°W
Pressure: 29.7"   Gusts: NA
Location:  29.3853°N, 98.6099°W
Report Text: KSKF 230858Z AUTO 26005KT 10SM CLR 13/12 A2970 RMK AO2 SLP053 T01290116 55006 $
Loading
Personal Weather Stations






























Interactive Weather Map New forecast layout! Learn more

10-Day Weather Forecast

Advertisements
Track Severe Weather on mobile